Flight Track Log - Related Links

Times and Time Zones

All times are in EDT time to prevent confusion due to time zone crossing. See the AWI3551 flight status page for this flight to view local times or setup timezone preferences in your user account.

Time Position Orientation Groundspeed Altitude Reporting Facility
EDT Latitude Longitude Course Direction KTS MPH feet Rate Location/Type
Fri 05:47:57 AM 42.9167 -78.7500 174° South 152 175 1,500  Level Buffalo TRACON
Fri 05:49:15 AM 42.8833 -78.8167 236° Southwest 204 235 3,500 1,423 Climbing Buffalo TRACON
Fri 05:50:00 AM 42.6240 -78.6848 172° South  Level FlightAware Approximate
Fri 05:50:33 AM 42.7906 -78.8092 177° South 260 299 5,200  Level Cleveland Center
Fri 05:51:00 AM 42.5213 -78.6647 173° South  Level FlightAware Approximate
Fri 05:51:33 AM 42.7131 -78.7889 169° South 280 322 7,100  Level Cleveland Center
Fri 05:52:00 AM 42.4182 -78.6500 180° South  Level FlightAware Approximate
Fri 05:52:33 AM 42.6378 -78.7656 167° South 287 330 8,900  Level Cleveland Center
Fri 05:53:00 AM 42.3148 -78.6426 174° South  Level FlightAware Approximate
Fri 05:53:33 AM 42.5581 -78.7425 168° South 293 337 10,600  Level Cleveland Center
Fri 05:54:33 AM 42.4764 -78.7194 168° South 299 344 12,600 2,000 Climbing Cleveland Center
Fri 05:55:33 AM 42.3906 -78.6939 168° South 304 350 14,600 1,800 Climbing Cleveland Center
Fri 05:56:33 AM 42.3047 -78.6714 169° South 310 357 16,200 1,450 Climbing Cleveland Center
Fri 05:57:33 AM 42.2231 -78.6514 170° South 325 374 17,500 1,450 Climbing Cleveland Center
Fri 05:58:33 AM 42.1350 -78.6147 163° South 330 380 19,100 1,250 Climbing Cleveland Center
Fri 05:59:33 AM 42.0486 -78.5697 159° South 336 387 20,000 950 Climbing Cleveland Center
Fri 06:00:33 AM 41.9583 -78.5225 159° South 346 398 21,000 500 Climbing Cleveland Center
Fri 06:01:33 AM 41.8636 -78.4725 159° South 356 410 21,000  Level Cleveland Center
Fri 06:02:33 AM 41.7647 -78.4256 160° South 368 423 21,000  Level Cleveland Center
Fri 06:03:33 AM 41.6700 -78.3761 159° South 374 430 21,000  Level Cleveland Center
Fri 06:04:33 AM 41.5731 -78.3267 159° South 374 430 21,000  Level Cleveland Center
Fri 06:05:13 AM 41.5017 -78.2947 161° South 373 429 21,000  Level New York Center
Fri 06:06:12 AM 41.4153 -78.2461 157° South 379 436 21,000  Level New York Center
Fri 06:07:13 AM 41.3183 -78.1969 159° South 379 436 21,000  Level New York Center
Fri 06:08:13 AM 41.2192 -78.1472 159° South 379 436 21,000  Level New York Center
Fri 06:09:14 AM 41.1222 -78.0981 159° South 379 436 21,000  Level New York Center
Fri 06:10:12 AM 41.0253 -78.0492 159° South 379 436 21,000  Level New York Center
Fri 06:11:12 AM 40.9283 -78.0003 159° South 379 436 21,000  Level New York Center
Fri 06:12:14 AM 40.8528 -77.9017 135° Southeast 371 427 21,000  Level New York Center
Fri 06:13:12 AM 40.7822 -77.7931 131° Southeast 381 438 21,000  Level New York Center
Fri 06:14:12 AM 40.7133 -77.6872 131° Southeast 381 438 21,000  Level New York Center
Fri 06:15:13 AM 40.6425 -77.5817 131° Southeast 386 444 21,000  Level New York Center
Fri 06:16:13 AM 40.5694 -77.4706 131° Southeast 391 450 21,000  Level New York Center
Fri 06:17:13 AM 40.4994 -77.3464 127° Southeast 391 450 21,000  Level New York Center
Fri 06:18:14 AM 40.4606 -77.2172 112° Southeast 397 457 21,000 -397 Level New York Center
Fri 06:19:14 AM 40.4247 -77.0692 108° East 409 471 20,200 -1,627 Descending New York Center
Fri 06:20:12 AM 40.3839 -76.8992 107° East 434 499 17,800 -1,641 Descending New York Center
Fri 06:21:11 AM 40.3489 -76.7653 109° East 445 512 17,000 -450 Descending New York Center
Fri 06:22:12 AM 40.3106 -76.6178 109° East 433 498 16,900 -1,091 Descending New York Center
Fri 06:23:12 AM 40.2703 -76.4619 109° East 414 476 14,800 -2,250 Descending New York Center
Fri 06:24:12 AM 40.2350 -76.3258 109° East 405 466 12,400 -2,331 Descending New York Center
Fri 06:25:13 AM 40.1994 -76.1925 109° East 392 451 10,100 -1,180 Descending New York Center
Fri 06:26:14 AM 40.1656 -76.0675 109° East 397 457 10,000 -50 Descending New York Center
Fri 06:27:13 AM 40.1283 -75.9208 108° East 397 457 10,000 -454 Level New York Center
Fri 06:28:13 AM 40.0936 -75.8042 111° Southeast 367 422 9,100 -1,550 Descending New York Center
Fri 06:29:13 AM 40.0808 -75.7111 100° East 315 362 6,900 -1,563 Descending New York Center
Fri 06:30:12 AM 40.0733 -75.5911 95° East 294 338 6,000 -454 Descending New York Center
Fri 06:31:12 AM 40.0669 -75.4931 95° East 299 344 6,000  Level New York Center
Fri 06:32:12 AM 40.0614 -75.3681 93° East 299 344 6,000  Level New York Center
Fri 06:32:54 AM 40.0500 -75.2833 100° East 307 353 6,000  Level Philadelphia TRACON
Fri 06:33:54 AM 40.0167 -75.1833 113° Southeast 290 334 6,000  Level Philadelphia TRACON
Fri 06:34:54 AM 40.0000 -75.1000 105° East 240 276 6,000  Level Philadelphia TRACON
Fri 06:35:54 AM 40.0167 -75.0167 75° East 247 284 6,000 -190 Level Philadelphia TRACON
Fri 06:37:00 AM 40.0000 -74.9333 105° East 221 254 5,600 -714 Descending Philadelphia TRACON
Fri 06:38:00 AM 39.9667 -74.9333 180° South 177 204 4,500 -1,150 Descending Philadelphia TRACON
Fri 06:39:00 AM 39.9333 -74.9833 229° Southwest 161 185 3,300 -1,200 Descending Philadelphia TRACON

Login

Don't have an account? Register now (free) for customized features, flight alerts, and more!